KMRF/MRF METAR and TAF weather

Enter ICAO airport designator
Station Type Date Time Source
KMRF METAR 2020/03/26 05:56 UTC NOAA

KMRF 260556Z AUTO 36005KT 10SM CLR 11/M05 A3004 RMK AO2 SLP121 T01061050 10289 20100 50004


Station Type Date Time Source
KMRF Decoded METAR 2020/03/26 05:56 UTC NOAA

Marfa, TX, United States (KMRF) 30-22N 104-01W 1481M
Mar 26, 2020 - 01:56 AM EDT / 2020.03.26 0556 UTC
Wind: from the N (360 degrees) at 6 MPH (5 KT):0
Visibility: 10 mile(s):0
Sky conditions: clear
Temperature: 51.1 F (10.6 C)
Dew Point: 23.0 F (-5.0 C)
Relative Humidity: 32%
Pressure (altimeter): 30.04 in. Hg (1017 hPa)
Pressure tendency: 0.01 inches (0.4 hPa) higher than three hours ago
ob: KMRF 260556Z AUTO 36005KT 10SM CLR 11/M05 A3004 RMK AO2 SLP121 T01061050 10289 20100 50004
cycle: 6

Station Type Date Time Source
KMRF TAF UTC NOAA

Error!

Example: see airport list